createdAt,value
2022-11-21T00:01:28.029Z,34.38
2022-11-21T00:03:56.586Z,35.55
2022-11-21T00:06:27.065Z,32.30
2022-11-21T00:08:56.905Z,35.75
2022-11-21T00:11:25.344Z,35.90
2022-11-21T00:13:53.848Z,36.78
2022-11-21T00:16:22.395Z,31.70
2022-11-21T00:18:50.888Z,32.95
2022-11-21T00:21:20.561Z,30.80
2022-11-21T00:23:50.435Z,31.85
2022-11-21T00:26:19.028Z,33.08
2022-11-21T00:28:47.632Z,31.83
2022-11-21T00:31:23.542Z,29.95
2022-11-21T00:33:52.161Z,30.17
2022-11-21T00:36:20.582Z,29.10
2022-11-21T00:38:50.390Z,27.55
2022-11-21T00:41:18.818Z,26.27
2022-11-21T00:43:47.388Z,28.27
2022-11-21T00:46:15.789Z,25.88
2022-11-21T00:48:44.364Z,28.48
2022-11-21T00:51:12.867Z,28.90
2022-11-21T00:53:41.882Z,26.65
2022-11-21T00:56:11.715Z,23.88
2022-11-21T00:58:40.188Z,28.45
2022-11-21T01:01:11.047Z,25.75
2022-11-21T01:03:39.565Z,27.63
2022-11-21T01:06:09.332Z,25.33
2022-11-21T01:08:39.316Z,24.58
2022-11-21T01:11:09.071Z,24.60
2022-11-21T01:13:38.871Z,23.98
2022-11-21T01:16:07.599Z,24.02
2022-11-21T01:18:36.032Z,27.17
2022-11-21T01:21:05.320Z,26.23
2022-11-21T01:23:33.773Z,22.50
2022-11-21T01:26:05.355Z,24.02
2022-11-21T01:28:34.058Z,23.50
2022-11-21T01:31:07.748Z,25.98
2022-11-21T01:33:36.428Z,24.67
2022-11-21T01:36:10.200Z,22.80
2022-11-21T01:38:38.836Z,22.35
2022-11-21T01:41:07.503Z,20.50
2022-11-21T01:43:36.005Z,23.55
2022-11-21T01:46:10.521Z,22.58
2022-11-21T01:48:41.634Z,23.45
2022-11-21T01:51:15.364Z,20.83
2022-11-21T01:53:44.273Z,20.00
2022-11-21T01:56:12.753Z,22.02
2022-11-21T01:58:41.231Z,21.55
2022-11-21T02:01:11.190Z,17.15
2022-11-21T02:03:39.967Z,21.38
2022-11-21T02:06:08.585Z,19.45
2022-11-21T02:08:37.077Z,21.33
2022-11-21T02:11:15.626Z,23.92
2022-11-21T02:13:44.360Z,20.58
2022-11-21T02:16:14.231Z,18.80
2022-11-21T02:18:42.655Z,18.45
2022-11-21T02:21:17.981Z,21.65
2022-11-21T02:23:50.593Z,21.63
2022-11-21T02:26:20.429Z,17.67
2022-11-21T02:28:48.912Z,17.70
2022-11-21T02:31:17.336Z,20.40
2022-11-21T02:33:45.850Z,17.13
2022-11-21T02:36:40.309Z,18.98
2022-11-21T02:39:10.329Z,19.17
2022-11-21T02:41:43.063Z,19.77
2022-11-21T02:44:17.276Z,18.15
2022-11-21T02:46:49.317Z,19.60
2022-11-21T02:49:20.033Z,18.55
2022-11-21T02:51:48.746Z,18.50
2022-11-21T02:54:17.423Z,18.92
2022-11-21T02:56:47.243Z,17.85
2022-11-21T02:59:15.713Z,17.08
2022-11-21T03:01:44.235Z,19.88
2022-11-21T03:04:12.648Z,18.80
2022-11-21T03:06:41.188Z,20.75
2022-11-21T03:09:09.845Z,15.82
2022-11-21T03:11:38.327Z,18.77
2022-11-21T03:14:08.277Z,16.27
2022-11-21T03:16:36.739Z,16.63
2022-11-21T03:19:05.348Z,15.88
2022-11-21T03:21:33.891Z,15.77
2022-11-21T03:24:02.328Z,15.38
2022-11-21T03:26:30.823Z,16.83
2022-11-21T03:28:59.243Z,17.13
2022-11-21T03:31:29.061Z,14.75
2022-11-21T03:33:57.526Z,15.50
2022-11-21T03:36:26.140Z,17.88
2022-11-21T03:38:56.131Z,15.25
2022-11-21T03:41:30.875Z,17.10
2022-11-21T03:44:02.161Z,15.25
2022-11-21T03:46:33.132Z,16.15
2022-11-21T03:49:01.593Z,15.82
2022-11-21T03:51:30.190Z,15.05
2022-11-21T03:53:58.807Z,18.48
2022-11-21T03:56:27.434Z,16.65
2022-11-21T03:58:56.001Z,17.02
2022-11-21T04:01:26.391Z,13.27
2022-11-21T04:03:56.215Z,15.95
2022-11-21T04:06:24.820Z,14.10
2022-11-21T04:08:53.415Z,14.55
2022-11-21T04:11:23.725Z,17.30
2022-11-21T04:13:52.187Z,14.77
2022-11-21T04:16:20.686Z,14.40
2022-11-21T04:18:49.139Z,15.73
2022-11-21T04:21:18.970Z,15.75
2022-11-21T04:23:47.425Z,14.20
2022-11-21T04:26:17.024Z,15.73
2022-11-21T04:28:45.635Z,17.27
2022-11-21T04:31:14.395Z,13.23
2022-11-21T04:33:43.057Z,14.85
2022-11-21T04:36:11.482Z,14.85
2022-11-21T04:38:41.253Z,14.35
2022-11-21T04:41:09.428Z,15.70
2022-11-21T04:43:37.891Z,14.82
2022-11-21T04:46:06.128Z,12.40
2022-11-21T04:48:34.557Z,13.23
2022-11-21T04:51:02.989Z,14.18
2022-11-21T04:53:31.455Z,14.60
2022-11-21T04:56:01.457Z,12.52
2022-11-21T04:58:29.649Z,14.57
2022-11-21T05:00:58.143Z,15.02
2022-11-21T05:03:26.612Z,17.67
2022-11-21T05:05:55.096Z,14.32
2022-11-21T05:08:23.567Z,13.52
2022-11-21T05:11:09.663Z,14.98
2022-11-21T05:13:39.418Z,16.00
2022-11-21T05:16:08.143Z,12.52
2022-11-21T05:18:36.668Z,11.85
2022-11-21T05:21:05.277Z,12.35
2022-11-21T05:23:33.764Z,13.00
2022-11-21T05:26:02.293Z,10.50
2022-11-21T05:28:30.760Z,13.68
2022-11-21T05:31:00.545Z,13.35
2022-11-21T05:33:29.005Z,11.50
2022-11-21T05:35:57.460Z,11.35
2022-11-21T05:38:25.915Z,13.15
2022-11-21T05:40:54.478Z,12.50
2022-11-21T05:43:40.658Z,12.05
2022-11-21T05:46:10.634Z,11.38
2022-11-21T05:48:40.239Z,12.63
2022-11-21T05:51:08.921Z,11.05
2022-11-21T05:53:37.374Z,14.80
2022-11-21T05:56:07.520Z,10.48
2022-11-21T05:58:35.972Z,13.23
2022-11-21T06:01:05.120Z,12.77
2022-11-21T06:03:35.857Z,12.65
2022-11-21T06:06:06.889Z,12.25
2022-11-21T06:08:36.743Z,12.80
2022-11-21T06:11:05.578Z,10.75
2022-11-21T06:13:34.473Z,11.85
2022-11-21T06:16:04.416Z,10.70
2022-11-21T06:18:35.199Z,12.32
2022-11-21T06:21:04.565Z,13.65
2022-11-21T06:23:33.008Z,11.50
2022-11-21T06:26:03.444Z,14.43
2022-11-21T06:28:33.691Z,12.77
2022-11-21T06:31:04.911Z,11.88
2022-11-21T06:33:34.969Z,13.27
2022-11-21T06:36:04.460Z,15.60
2022-11-21T06:38:33.030Z,17.80
2022-11-21T06:41:06.134Z,13.93
2022-11-21T06:43:34.590Z,16.58
2022-11-21T06:46:04.128Z,15.07
2022-11-21T06:48:34.072Z,15.18
2022-11-21T06:51:06.455Z,17.30
2022-11-21T06:53:37.570Z,19.25
2022-11-21T06:56:06.446Z,17.75
2022-11-21T06:58:35.005Z,14.23
2022-11-21T07:01:06.536Z,15.30
2022-11-21T07:03:37.753Z,15.82
2022-11-21T07:06:06.767Z,15.82
2022-11-21T07:08:36.397Z,19.13
2022-11-21T07:13:54.839Z,16.95
2022-11-21T07:16:26.177Z,19.25
2022-11-21T07:18:56.334Z,16.65
2022-11-21T07:21:24.783Z,17.35
2022-11-21T07:23:53.381Z,16.13
2022-11-21T07:26:21.983Z,13.82
2022-11-21T07:28:50.418Z,17.98
2022-11-21T07:31:19.073Z,17.67
2022-11-21T07:33:48.311Z,16.63
2022-11-21T07:36:18.200Z,16.13
2022-11-21T07:38:47.819Z,16.92
2022-11-21T07:41:16.297Z,16.38
2022-11-21T07:43:45.855Z,14.90
2022-11-21T07:46:14.445Z,15.07
2022-11-21T07:48:44.219Z,18.10
2022-11-21T07:51:12.664Z,17.63
2022-11-21T07:53:42.578Z,14.70
2022-11-21T07:56:11.058Z,18.98
2022-11-21T07:58:40.657Z,14.18
2022-11-21T08:01:09.354Z,14.98
2022-11-21T08:03:37.834Z,17.77
2022-11-21T08:06:06.526Z,14.90
2022-11-21T08:08:35.002Z,14.45
2022-11-21T08:11:07.486Z,14.82
2022-11-21T08:13:39.141Z,15.35
2022-11-21T08:16:08.161Z,17.98
2022-11-21T08:18:36.670Z,16.27
2022-11-21T08:21:05.915Z,17.13
2022-11-21T08:23:36.476Z,14.48
2022-11-21T08:26:10.051Z,15.52
2022-11-21T08:28:39.451Z,15.63
2022-11-21T08:31:11.320Z,13.95
2022-11-21T08:33:39.844Z,19.45
2022-11-21T08:36:09.243Z,15.95
2022-11-21T08:38:37.827Z,14.65
2022-11-21T08:41:25.388Z,15.75
2022-11-21T08:43:53.875Z,14.15
2022-11-21T08:46:22.364Z,15.93
2022-11-21T08:48:51.617Z,15.02
2022-11-21T08:51:20.267Z,13.32
2022-11-21T08:53:49.770Z,15.15
2022-11-21T08:56:19.953Z,15.60
2022-11-21T08:58:48.447Z,14.25
2022-11-21T09:01:17.013Z,17.35
2022-11-21T09:03:45.607Z,13.45
2022-11-21T09:06:14.211Z,14.23
2022-11-21T09:08:42.701Z,15.50
2022-11-21T09:11:11.541Z,14.85
2022-11-21T09:13:41.479Z,15.45
2022-11-21T09:16:30.276Z,15.60
2022-11-21T09:18:58.943Z,16.60
2022-11-21T09:21:27.467Z,14.25
2022-11-21T09:23:55.929Z,15.57
2022-11-21T09:26:24.478Z,16.50
2022-11-21T09:28:54.391Z,17.95
2022-11-21T09:31:22.879Z,20.67
2022-11-21T09:33:54.977Z,15.38
2022-11-21T09:36:23.746Z,15.77
2022-11-21T09:38:54.005Z,15.10
2022-11-21T09:41:45.902Z,21.48
2022-11-21T09:44:21.473Z,39.45
2022-11-21T09:46:50.563Z,40.08
2022-11-21T09:49:19.102Z,35.08
2022-11-21T09:51:47.575Z,32.05
2022-11-21T09:54:19.607Z,26.77
2022-11-21T09:56:48.054Z,28.13
2022-11-21T09:59:30.235Z,31.80
2022-11-21T10:01:58.770Z,31.85
2022-11-21T10:04:27.972Z,27.67
2022-11-21T10:07:03.287Z,27.52
2022-11-21T10:09:53.982Z,29.92
2022-11-21T10:12:38.744Z,34.83
2022-11-21T10:15:28.167Z,27.60
2022-11-21T10:18:14.846Z,28.92
2022-11-21T10:20:54.151Z,30.20
2022-11-21T10:23:36.690Z,32.28
2022-11-21T10:26:17.212Z,28.95
2022-11-21T10:28:52.660Z,24.73
2022-11-21T10:31:23.056Z,27.63
2022-11-21T10:33:51.700Z,24.75
2022-11-21T10:36:28.012Z,26.65
2022-11-21T10:39:01.023Z,29.17
2022-11-21T10:41:41.652Z,28.05
2022-11-21T10:44:42.055Z,27.20
2022-11-21T10:47:28.433Z,23.75
2022-11-21T10:50:04.605Z,28.60
2022-11-21T10:52:35.403Z,27.20
2022-11-21T10:55:10.202Z,30.33
2022-11-21T10:57:42.295Z,26.75
2022-11-21T11:00:23.538Z,24.67
2022-11-21T11:03:06.537Z,25.63
2022-11-21T11:05:36.781Z,23.52
2022-11-21T11:08:08.725Z,23.40
2022-11-21T11:10:38.470Z,23.65
2022-11-21T11:13:49.444Z,26.60
2022-11-21T11:16:21.619Z,25.27
2022-11-21T11:18:58.670Z,23.67
2022-11-21T11:21:28.545Z,21.27
2022-11-21T11:24:20.415Z,23.58
2022-11-21T11:26:53.793Z,21.85
2022-11-21T11:29:23.524Z,24.35
2022-11-21T11:31:55.887Z,21.15
2022-11-21T11:34:27.343Z,21.92
2022-11-21T11:36:57.947Z,22.67
2022-11-21T11:39:38.280Z,20.25
2022-11-21T11:43:04.899Z,21.75
2022-11-21T11:46:27.342Z,21.02
2022-11-21T11:51:52.598Z,26.00
2022-11-21T11:54:23.330Z,22.90
2022-11-21T11:56:52.042Z,20.70
2022-11-21T11:59:23.721Z,18.70
2022-11-21T12:01:55.051Z,19.58
2022-11-21T12:04:25.155Z,20.75
2022-11-21T12:09:49.878Z,18.52
2022-11-21T12:12:22.894Z,19.75
2022-11-21T12:15:20.900Z,19.38
2022-11-21T12:17:54.004Z,19.58
2022-11-21T12:20:24.490Z,20.73
2022-11-21T12:22:54.496Z,19.42
2022-11-21T12:25:26.673Z,22.60
2022-11-21T12:27:56.314Z,18.92
2022-11-21T12:30:48.691Z,20.58
2022-11-21T12:33:22.165Z,18.02
2022-11-21T12:36:19.096Z,17.98
2022-11-21T12:39:30.763Z,18.80
2022-11-21T12:42:19.123Z,16.55
2022-11-21T12:45:03.144Z,21.55
2022-11-21T12:48:09.696Z,16.33
2022-11-21T12:51:00.320Z,20.92
2022-11-21T12:53:49.218Z,26.85
2022-11-21T12:56:24.168Z,19.17
2022-11-21T12:58:52.665Z,17.48
2022-11-21T13:01:25.322Z,16.33
2022-11-21T13:03:59.986Z,14.50
2022-11-21T13:06:29.867Z,16.48
2022-11-21T13:08:59.524Z,15.75
2022-11-21T13:12:08.692Z,18.23
2022-11-21T13:14:43.448Z,16.65
2022-11-21T13:17:29.286Z,16.88
2022-11-21T13:19:59.244Z,16.17
2022-11-21T13:22:54.388Z,17.92
2022-11-21T13:25:40.805Z,14.95
2022-11-21T13:28:33.924Z,14.50
2022-11-21T13:31:03.960Z,15.73
2022-11-21T13:33:57.103Z,14.07
2022-11-21T13:36:44.236Z,16.63
2022-11-21T13:39:35.424Z,13.95
2022-11-21T13:42:29.476Z,16.38
2022-11-21T13:44:59.544Z,13.90
2022-11-21T13:48:20.259Z,14.93
2022-11-21T13:51:31.331Z,15.40
2022-11-21T13:54:58.364Z,13.48
2022-11-21T13:57:49.785Z,14.43
2022-11-21T14:00:32.392Z,12.57
2022-11-21T14:03:31.594Z,12.05
2022-11-21T14:06:37.430Z,11.25
2022-11-21T14:09:23.000Z,14.13
2022-11-21T14:11:52.609Z,13.40
2022-11-21T14:14:34.776Z,14.85
2022-11-21T14:17:30.091Z,16.50
2022-11-21T14:20:00.722Z,12.35
2022-11-21T14:22:39.806Z,12.00
2022-11-21T14:25:16.734Z,12.95
2022-11-21T14:27:47.969Z,13.32
2022-11-21T14:30:37.073Z,11.98
2022-11-21T14:33:34.479Z,12.88
2022-11-21T14:36:08.027Z,11.68
2022-11-21T14:38:42.810Z,11.23
2022-11-21T14:41:31.792Z,14.50
2022-11-21T14:44:15.186Z,13.30
2022-11-21T14:46:44.084Z,14.65
2022-11-21T14:49:34.813Z,15.20
2022-11-21T14:52:19.826Z,13.25
2022-11-21T14:57:42.710Z,12.95
2022-11-21T15:03:05.471Z,15.02
2022-11-21T15:11:13.997Z,12.73
2022-11-21T15:14:12.154Z,9.60
2022-11-21T15:16:31.222Z,11.77
2022-11-21T15:18:59.709Z,13.27
2022-11-21T15:21:29.751Z,12.63
2022-11-21T15:23:58.287Z,13.30
2022-11-21T15:26:31.584Z,12.45
2022-11-21T15:29:01.119Z,10.05
2022-11-21T15:31:29.591Z,12.52
2022-11-21T15:34:33.217Z,9.32
2022-11-21T15:37:05.726Z,9.32
2022-11-21T15:39:34.504Z,8.90
2022-11-21T15:42:37.169Z,10.88
2022-11-21T15:45:25.540Z,10.52
2022-11-21T15:47:55.704Z,9.50
2022-11-21T15:50:25.093Z,12.98
2022-11-21T15:52:57.345Z,11.75
2022-11-21T15:55:29.438Z,12.00
2022-11-21T15:57:58.090Z,9.30
2022-11-21T16:00:26.606Z,10.38
2022-11-21T16:02:55.328Z,10.98
2022-11-21T16:05:24.987Z,10.07
2022-11-21T16:07:54.941Z,11.63
2022-11-21T16:10:27.742Z,8.48
2022-11-21T16:12:57.752Z,8.70
2022-11-21T16:15:26.275Z,11.15
2022-11-21T16:17:54.965Z,14.90
2022-11-21T16:20:23.493Z,13.48
2022-11-21T16:22:54.071Z,9.15
2022-11-21T16:25:22.564Z,11.50
2022-11-21T16:27:52.942Z,9.98
2022-11-21T16:30:21.686Z,10.57
2022-11-21T16:32:51.377Z,13.27
2022-11-21T16:35:19.905Z,17.10
2022-11-21T16:37:48.489Z,10.85
2022-11-21T16:40:18.864Z,15.50
2022-11-21T16:42:47.308Z,22.45
2022-11-21T16:45:15.954Z,17.52
2022-11-21T16:47:48.725Z,14.52
2022-11-21T16:50:18.467Z,17.15
2022-11-21T16:52:46.945Z,19.15
2022-11-21T16:55:17.025Z,19.08
2022-11-21T16:57:45.546Z,20.30
2022-11-21T17:00:15.210Z,16.85
2022-11-21T17:02:43.705Z,19.77
2022-11-21T17:05:12.235Z,14.35
2022-11-21T17:07:40.862Z,15.68
2022-11-21T17:10:10.365Z,16.45
2022-11-21T17:12:40.456Z,14.35
2022-11-21T17:15:10.886Z,15.00
2022-11-21T17:17:39.501Z,12.07
2022-11-21T17:20:09.989Z,13.20
2022-11-21T17:22:38.389Z,13.23
2022-11-21T17:25:08.231Z,12.65
2022-11-21T17:27:36.694Z,12.65
2022-11-21T17:30:08.433Z,11.43
2022-11-21T17:32:37.415Z,14.35
2022-11-21T17:35:07.078Z,10.63
2022-11-21T17:37:35.702Z,12.45
2022-11-21T17:40:06.687Z,12.30
2022-11-21T17:42:35.178Z,11.93
2022-11-21T17:45:03.697Z,11.77
2022-11-21T17:47:35.622Z,13.07
2022-11-21T17:50:06.222Z,12.48
2022-11-21T17:52:35.036Z,13.18
2022-11-21T17:55:03.499Z,12.25
2022-11-21T17:57:31.991Z,11.63
2022-11-21T18:00:00.515Z,12.20
2022-11-21T18:02:29.190Z,11.30
2022-11-21T18:04:59.160Z,11.63
2022-11-21T18:07:27.788Z,13.63
2022-11-21T18:10:09.268Z,10.93
2022-11-21T18:12:45.072Z,9.32
2022-11-21T18:15:13.685Z,11.43
2022-11-21T18:17:43.064Z,15.27
2022-11-21T18:20:13.270Z,17.45
2022-11-21T18:22:41.744Z,18.00
2022-11-21T18:25:10.754Z,29.02
2022-11-21T18:27:39.188Z,30.50
2022-11-21T18:30:09.412Z,25.90
2022-11-21T18:32:38.140Z,26.00
2022-11-21T18:35:07.089Z,35.90
2022-11-21T18:37:38.208Z,34.70
2022-11-21T18:40:08.237Z,31.25
2022-11-21T18:42:37.101Z,28.77
2022-11-21T18:45:06.403Z,27.58
2022-11-21T18:47:34.898Z,27.42
2022-11-21T18:50:03.399Z,34.00
2022-11-21T18:52:34.173Z,27.30
2022-11-21T18:55:04.100Z,28.50
2022-11-21T18:57:35.912Z,26.45
2022-11-21T19:00:06.306Z,27.98
2022-11-21T19:02:34.887Z,33.20
2022-11-21T19:05:03.501Z,30.48
2022-11-21T19:07:32.120Z,30.05
2022-11-21T19:10:20.651Z,31.80
2022-11-21T19:12:50.698Z,25.20
2022-11-21T19:15:19.523Z,27.77
2022-11-21T19:17:48.099Z,27.55
2022-11-21T19:20:17.284Z,26.38
2022-11-21T19:22:45.743Z,26.13
2022-11-21T19:25:17.233Z,28.40
2022-11-21T19:27:48.445Z,25.52
2022-11-21T19:30:18.621Z,26.80
2022-11-21T19:32:47.242Z,25.02
2022-11-21T19:35:15.840Z,38.72
2022-11-21T19:37:44.474Z,58.22
2022-11-21T19:40:13.934Z,56.00
2022-11-21T19:42:42.796Z,52.90
2022-11-21T19:45:14.136Z,49.20
2022-11-21T19:47:46.003Z,55.92
2022-11-21T19:50:15.418Z,48.47
2022-11-21T19:52:43.955Z,58.65
2022-11-21T19:55:12.572Z,48.75
2022-11-21T19:57:41.098Z,49.08
2022-11-21T20:00:10.985Z,41.22
2022-11-21T20:02:39.582Z,42.35
2022-11-21T20:05:10.533Z,44.88
2022-11-21T20:07:39.135Z,43.78
2022-11-21T20:10:08.712Z,41.42
2022-11-21T20:12:37.400Z,39.80
2022-11-21T20:15:06.956Z,47.60
2022-11-21T20:17:35.611Z,44.20
2022-11-21T20:20:04.307Z,40.80
2022-11-21T20:22:34.291Z,39.08
2022-11-21T20:25:03.090Z,36.63
2022-11-21T20:27:32.688Z,37.60
2022-11-21T20:30:01.178Z,31.15
2022-11-21T20:32:29.808Z,32.97
2022-11-21T20:34:58.428Z,29.75
2022-11-21T20:37:27.341Z,28.23
2022-11-21T20:39:57.353Z,33.38
2022-11-21T20:42:25.927Z,31.40
2022-11-21T20:45:54.395Z,29.13
2022-11-21T20:47:42.824Z,29.88
2022-11-21T20:50:21.462Z,31.50
2022-11-21T20:55:49.995Z,28.90
2022-11-21T20:58:18.482Z,24.98
2022-11-21T21:00:47.045Z,30.10
2022-11-21T21:03:15.607Z,28.30
2022-11-21T21:05:44.833Z,32.03
2022-11-21T21:08:13.332Z,32.70
2022-11-21T21:11:04.636Z,35.72
2022-11-21T21:13:32.617Z,39.80
2022-11-21T21:16:06.040Z,43.92
2022-11-21T21:18:34.925Z,46.03
2022-11-21T21:21:17.071Z,43.65
2022-11-21T21:23:48.325Z,44.38
2022-11-21T21:26:18.281Z,39.78
2022-11-21T21:28:48.367Z,41.85
2022-11-21T21:31:22.080Z,39.05
2022-11-21T21:33:50.571Z,40.47
2022-11-21T21:36:20.626Z,41.45
2022-11-21T21:38:54.280Z,38.28
2022-11-21T21:41:23.434Z,36.42
2022-11-21T21:43:54.099Z,40.13
2022-11-21T21:46:25.609Z,37.47
2022-11-21T21:48:56.009Z,36.83
2022-11-21T21:51:25.743Z,36.58
2022-11-21T21:53:54.914Z,30.25
2022-11-21T21:56:24.620Z,35.03
2022-11-21T21:58:54.645Z,33.53
2022-11-21T22:01:24.031Z,29.25
2022-11-21T22:03:54.357Z,32.83
2022-11-21T22:06:22.950Z,35.67
2022-11-21T22:08:51.683Z,32.95
2022-11-21T22:11:21.439Z,29.50
2022-11-21T22:13:54.258Z,29.90
2022-11-21T22:16:22.852Z,28.23
2022-11-21T22:18:51.309Z,29.20
2022-11-21T22:21:21.228Z,27.00
2022-11-21T22:24:23.511Z,36.22
2022-11-21T22:26:38.478Z,42.55
2022-11-21T22:29:08.363Z,44.88
2022-11-21T22:31:37.528Z,32.22
2022-11-21T22:34:06.412Z,27.67
2022-11-21T22:36:34.906Z,34.78
2022-11-21T22:39:03.403Z,29.27
2022-11-21T22:41:31.989Z,31.10
2022-11-21T22:44:01.003Z,33.17
2022-11-21T22:46:31.695Z,38.40
2022-11-21T22:49:00.567Z,36.83
2022-11-21T22:51:30.403Z,34.65
2022-11-21T22:53:58.929Z,32.55
2022-11-21T22:56:28.172Z,28.15
2022-11-21T22:58:57.162Z,35.50
2022-11-21T23:01:26.997Z,34.15
2022-11-21T23:03:56.927Z,34.65
2022-11-21T23:06:26.797Z,28.13
2022-11-21T23:08:56.035Z,34.40
2022-11-21T23:11:26.308Z,28.33
2022-11-21T23:13:55.461Z,27.45
2022-11-21T23:16:24.504Z,29.80
2022-11-21T23:18:53.864Z,29.55
2022-11-21T23:21:23.976Z,31.52
2022-11-21T23:23:52.427Z,33.40
2022-11-21T23:26:21.275Z,28.90
2022-11-21T23:28:49.700Z,28.80
2022-11-21T23:31:18.307Z,30.25
2022-11-21T23:33:47.003Z,29.52
2022-11-21T23:36:15.412Z,26.55
2022-11-21T23:38:46.280Z,29.75
2022-11-21T23:41:14.728Z,28.90
2022-11-21T23:43:43.284Z,28.45
2022-11-21T23:46:11.807Z,27.23
2022-11-21T23:48:40.353Z,27.48
2022-11-21T23:51:08.810Z,26.10
2022-11-21T23:53:40.160Z,30.30
2022-11-21T23:56:10.174Z,27.98
2022-11-21T23:58:39.501Z,29.42
